Buoy 32622

sailwx.info

Track history (hours):
 
Tides and Currents Weather Stations Pressure Air Temp Water Temp Dewpoint Dewpoint Depression Visibility Wind Speed Wind Dir Waves Ship Positions

Aadnyj

Last reported at 2017-Mar-24 22:00 UTC. Time now 2017-Mar-24 23:51 UTC.
Position S 11°34' W 136°41'.

Length 56 m.

Type: Towing. MMSI: 413600286.

Water temperature 29.3 ° C

Date/timePositionNaut miles runAvg speedWind from/ knotsBaromVisibWave heightAir tempDewpointWater temp
2017-Mar-24 22:00S 11°34' W 136°41'1 0.2 29.3
2017-Mar-24 19:00S 11°34' W 136°41'1 1.2 29.1
2017-Mar-24 18:00S 11°34' W 136°40'1 0.8 29.1
2017-Mar-24 17:00S 11°33' W 136°40'0 0.0 29.0
2017-Mar-24 16:00S 11°33' W 136°40'1 0.6 29.0
2017-Mar-24 15:00S 11°33' W 136°39'0 0.0 28.9
2017-Mar-24 14:00S 11°33' W 136°39'1 1.3 28.9
2017-Mar-24 13:00S 11°32' W 136°38'1 0.3 28.8
2017-Mar-24 11:00S 11°32' W 136°38'3 0.7 29.0
2017-Mar-24 07:00S 11°32' W 136°35'0 0.0 29.1
2017-Mar-24 06:00S 11°32' W 136°35'2 1.2 29.1
2017-Mar-24 04:00S 11°31' W 136°32'2 1.9 29.2
2017-Mar-24 03:00S 11°31' W 136°31'1 0.8 29.2
2017-Mar-24 02:00S 11°30' W 136°30'0 0.0 29.2
2017-Mar-24 00:00S 11°30' W 136°30'2 1.8 29.2
2017-Mar-23 23:00S 11°30' W 136°28'4 0.9 29.2
2017-Mar-23 19:00S 11°29' W 136°25'2 1.9 29.1
2017-Mar-23 18:00S 11°30' W 136°23'2 2.4 29.0
2017-Mar-23 17:00S 11°30' W 136°20'5 2.4 29.0
2017-Mar-23 15:00S 11°31' W 136°16'0 0.0 29.0
2017-Mar-23 14:00S 11°31' W 136°16'4 1.9 29.0
2017-Mar-23 12:00S 11°32' W 136°12'0 0.0 29.0
2017-Mar-23 11:00S 11°32' W 136°12'0 0.0 29.0
2017-Mar-23 08:00S 11°32' W 136°12'0 0.0 29.0
2017-Mar-23 07:00S 11°32' W 136°12'3 2.6 29.0
2017-Mar-23 06:00S 11°34' W 136°10'0 0.0 29.0
2017-Mar-23 05:00S 11°34' W 136°10'0 0.0 29.0
2017-Mar-23 04:00S 11°34' W 136°10'1 1.2 29.0
2017-Mar-23 03:00S 11°35' W 136°10'1 0.8 29.0
2017-Mar-23 02:00S 11°34' W 136°09'2 1.7 29.1
2017-Mar-23 01:00S 11°35' W 136°08'1 1.3 29.1
2017-Mar-23 00:00S 11°37' W 136°07'0 0.0 29.0
2017-Mar-22 23:00S 11°37' W 136°07'5 1.2 29.0
2017-Mar-22 19:00S 11°40' W 136°04'1 0.6 29.0
2017-Mar-22 18:00S 11°40' W 136°04'1 0.6 29.1
2017-Mar-22 17:00S 11°40' W 136°04'0 0.0 29.1
2017-Mar-22 16:00S 11°40' W 136°04'2 1.9 29.1
2017-Mar-22 15:00S 11°41' W 136°02'1 1.3 29.1
2017-Mar-22 14:00S 11°40' W 136°04'1 1.2 29.1
2017-Mar-22 13:00S 11°40' W 136°02'0 0.0 29.1
2017-Mar-22 12:00S 11°40' W 136°02'1 0.3 29.1
2017-Mar-22 10:00S 11°40' W 136°02'3 1.1 29.1
2017-Mar-22 07:00S 11°39' W 135°59'1 1.2 29.1
2017-Mar-22 06:00S 11°39' W 135°58'1 0.6 29.1
2017-Mar-22 05:00S 11°38' W 135°58'1 0.6 29.1
2017-Mar-22 04:00S 11°38' W 135°58'3 3.0 29.1
2017-Mar-22 03:00S 11°38' W 135°55'0 0.0 29.1
2017-Mar-22 01:00S 11°38' W 135°55'2 1.8 29.2
2017-Mar-22 00:00S 11°38' W 135°53'0 0.0 29.2
2017-Mar-21 23:00S 11°38' W 135°53'4 1.1 29.2
2017-Mar-21 19:00S 11°37' W 135°49'1 0.6 29.2
2017-Mar-21 18:00S 11°37' W 135°49'1 0.6 29.2
2017-Mar-21 17:00S 11°36' W 135°49'3 2.9 29.2
2017-Mar-21 16:00S 11°36' W 135°46'0 0.0 29.2
2017-Mar-21 15:00S 11°36' W 135°46'0 0.0 29.2
2017-Mar-21 14:00S 11°36' W 135°46'3 3.0 29.2
2017-Mar-21 13:00S 11°35' W 135°43'0 0.0 29.2
2017-Mar-21 12:00S 11°35' W 135°43'1 0.7 29.2
2017-Mar-21 10:00S 11°35' W 135°41'5 1.8 29.2
2017-Mar-21 07:00S 11°35' W 135°36'1 0.6 29.2
2017-Mar-21 06:00S 11°36' W 135°36'0 0.0 29.2
2017-Mar-21 05:00S 11°36' W 135°36'2 1.9 29.2
2017-Mar-21 04:00S 11°37' W 135°34'0 0.0 29.2
2017-Mar-21 03:00S 11°37' W 135°34'2 1.8 29.3
2017-Mar-21 02:00S 11°37' W 135°32'0 0.0 29.4
2017-Mar-21 01:00S 11°37' W 135°32'2 1.9 29.4
2017-Mar-21 00:00S 11°37' W 135°31'1 0.6 29.4
2017-Mar-20 23:00S 11°37' W 135°30'4 1.0 29.4
2017-Mar-20 19:00S 11°39' W 135°26'1 0.8 29.2
2017-Mar-20 18:00S 11°40' W 135°26'1 1.3 29.2
2017-Mar-20 17:00S 11°40' W 135°25'0 0.0 29.1
2017-Mar-20 16:00S 11°40' W 135°25'1 1.3 29.1
2017-Mar-20 15:00S 11°41' W 135°23'0 0.0 29.1
2017-Mar-20 14:00S 11°41' W 135°23'0 0.0 29.1
2017-Mar-20 13:00S 11°41' W 135°23'0 0.0 29.1
2017-Mar-20 12:00S 11°41' W 135°23'4 0.7 29.1
2017-Mar-20 07:00S 11°41' W 135°20'1 0.6 29.2
2017-Mar-20 06:00S 11°41' W 135°20'1 1.2 29.2
2017-Mar-20 05:00S 11°41' W 135°19'1 1.3 29.2
2017-Mar-20 04:00S 11°42' W 135°19'1 0.8 29.2
2017-Mar-20 03:00S 11°41' W 135°18'0 0.0 29.3
2017-Mar-20 02:00S 11°41' W 135°18'0 0.0 29.3
2017-Mar-20 01:00S 11°41' W 135°18'2 1.8 29.3
2017-Mar-20 00:00S 11°41' W 135°16'3 3.0 29.3
2017-Mar-19 23:00S 11°42' W 135°13'1 0.2 29.3
2017-Mar-19 19:00S 11°41' W 135°13'1 1.2 29.1
2017-Mar-19 18:00S 11°41' W 135°11'1 1.3 29.1
2017-Mar-19 17:00S 11°42' W 135°10'1 0.7 29.1
2017-Mar-19 15:00S 11°41' W 135°09'1 1.2 29.1
2017-Mar-19 14:00S 11°41' W 135°08'0 0.0 29.1
2017-Mar-19 13:00S 11°41' W 135°08'1 1.3 29.1
2017-Mar-19 12:00S 11°40' W 135°07'0 0.0 29.1
2017-Mar-19 11:00S 11°40' W 135°07'0 0.0 29.1
2017-Mar-19 10:00S 11°40' W 135°07'5 1.8 29.1
2017-Mar-19 07:00S 11°40' W 135°02'2 1.7 29.1
2017-Mar-19 06:00S 11°38' W 135°01'0 0.0 29.1
2017-Mar-19 05:00S 11°38' W 135°01'1 1.3 29.1
2017-Mar-19 04:00S 11°39' W 134°59'1 0.6 29.2
2017-Mar-19 03:00S 11°38' W 134°59'4 4.1 29.2
2017-Mar-19 02:00S 11°38' W 134°55'2 1.8 29.2
2017-Mar-19 01:00S 11°38' W 134°53'0 0.0 29.2
2017-Mar-19 00:00S 11°38' W 134°53'4 3.5 29.2
2017-Mar-18 23:00S 11°38' W 134°50'0 0.0 29.2
2017-Mar-18 19:00S 11°38' W 134°50'4 4.2 29.1
2017-Mar-18 18:00S 11°39' W 134°46'0 0.0 29.1
2017-Mar-18 17:00S 11°39' W 134°46'2 1.9 29.1
2017-Mar-18 16:00S 11°40' W 134°44'0 0.0 29.1
2017-Mar-18 15:00S 11°40' W 134°44'3 2.6 29.1
2017-Mar-18 14:00S 11°41' W 134°41'1 0.6 29.1
2017-Mar-18 13:00S 11°41' W 134°41'1 1.3 29.1
2017-Mar-18 12:00S 11°43' W 134°41'1 0.6 29.1
2017-Mar-18 11:00S 11°43' W 134°41'5 4.9 29.1
2017-Mar-18 10:00S 11°44' W 134°37'0 0.0 29.1
2017-Mar-18 08:00S 11°44' W 134°37'0 0.0 29.2
2017-Mar-18 07:00S 11°44' W 134°37'4 3.8 29.2
2017-Mar-18 06:00S 11°46' W 134°34'0 0.0 29.2
2017-Mar-18 05:00S 11°46' W 134°34'0 0.0 29.2
2017-Mar-18 04:00S 11°46' W 134°34'0 0.0 29.2
2017-Mar-18 03:00S 11°46' W 134°34'2 1.8 29.3
2017-Mar-18 02:00S 11°46' W 134°32'0 0.0 29.3
2017-Mar-18 01:00S 11°46' W 134°32'5 5.0 29.4
2017-Mar-18 00:00S 11°48' W 134°27'0 0.0 29.4
2017-Mar-17 23:00S 11°48' W 134°27'0 0.0 29.4
2017-Mar-17 19:00S 11°48' W 134°27'1 0.6 29.2
2017-Mar-17 18:00S 11°48' W 134°28'1 0.8 29.2
2017-Mar-17 17:00S 11°47' W 134°27'1 1.2 29.2
2017-Mar-17 16:00S 11°47' W 134°26'1 1.2 29.2
2017-Mar-17 15:00S 11°47' W 134°25'0 0.0 29.2
2017-Mar-17 14:00S 11°47' W 134°25'0 0.0 29.2
2017-Mar-17 13:00S 11°47' W 134°25'1 1.2 29.2
2017-Mar-17 12:00S 11°47' W 134°23'0 0.0 29.2
2017-Mar-17 11:00S 11°47' W 134°23'0 0.0 29.2
2017-Mar-17 10:00S 11°47' W 134°23'3 1.1 29.2
2017-Mar-17 07:00S 11°46' W 134°20'3 3.0 29.2
2017-Mar-17 06:00S 11°45' W 134°17'1 0.4 29.2
2017-Mar-17 04:00S 11°44' W 134°17'1 0.6 29.2
2017-Mar-17 03:00S 11°44' W 134°16'2 1.7 29.2
2017-Mar-17 02:00S 11°43' W 134°15'2 2.4 29.3
2017-Mar-17 01:00S 11°43' W 134°13'1 0.8 29.3
2017-Mar-17 00:00S 11°42' W 134°12'0 0.0 29.3
2017-Mar-16 23:00S 11°42' W 134°12'0 0.0 29.3
2017-Mar-16 22:00S 11°42' W 134°12'6 2.0 29.3
2017-Mar-16 19:00S 11°41' W 134°06'2 1.7 29.2
2017-Mar-16 18:00S 11°40' W 134°07'3 3.0 29.2
2017-Mar-16 17:00S 11°40' W 134°04'1 0.6 29.2
2017-Mar-16 15:00S 11°39' W 134°04'5 5.4 29.2
2017-Mar-16 14:00S 11°40' W 133°59'0 0.0 29.2
2017-Mar-16 13:00S 11°40' W 133°59'0 0.0 29.2
2017-Mar-16 11:00S 11°40' W 133°59'5 1.4 29.2
2017-Mar-16 07:00S 11°39' W 133°53'2 1.9 29.2
2017-Mar-16 06:00S 11°38' W 133°52'0 0.0 29.3
2017-Mar-16 05:00S 11°38' W 133°52'0 0.0 29.3
2017-Mar-16 04:00S 11°38' W 133°52'1 0.6 29.3
2017-Mar-16 03:00S 11°38' W 133°51'2 1.9 29.3
2017-Mar-16 02:00S 11°39' W 133°49'2 1.9 29.4
2017-Mar-16 01:00S 11°40' W 133°47'0 0.0 29.4
2017-Mar-16 00:00S 11°40' W 133°47'2 0.9 29.4
2017-Mar-15 22:00S 11°40' W 133°46'3 1.0 29.3
2017-Mar-15 19:00S 11°40' W 133°43'0 0.0 29.2
2017-Mar-15 18:00S 11°40' W 133°43'2 1.9 29.1
2017-Mar-15 17:00S 11°41' W 133°41'0 0.0 29.1
2017-Mar-15 16:00S 11°41' W 133°41'1 1.3 29.1
2017-Mar-15 15:00S 11°41' W 133°40'1 0.6 29.1
2017-Mar-15 14:00S 11°41' W 133°40'1 0.6 29.1
2017-Mar-15 13:00S 11°42' W 133°40'2 1.1 29.1
2017-Mar-15 11:00S 11°41' W 133°38'0 0.0 29.1
2017-Mar-15 07:00S 11°41' W 133°38'1 1.3 29.2
2017-Mar-15 06:00S 11°40' W 133°38'1 0.3 29.2
2017-Mar-15 04:00S 11°40' W 133°37'0 0.0 29.2
2017-Mar-15 03:00S 11°40' W 133°37'1 1.3 29.3
2017-Mar-15 02:00S 11°39' W 133°36'0 0.0 29.4
2017-Mar-15 01:00S 11°39' W 133°36'0 0.0 29.4
2017-Mar-15 00:00S 11°39' W 133°36'0 0.0 29.4
2017-Mar-14 23:00S 11°39' W 133°36'   29.4
Track history (hours):
 
Tides and Currents Weather Stations Pressure Air Temp Water Temp Dewpoint Dewpoint Depression Visibility Wind Speed Wind Dir Waves Ship Positions

Aadnyj

Last reported at 2017-Mar-24 22:00 UTC. Time now 2017-Mar-24 23:51 UTC.
Position S 11°34' W 136°41'.

Length 56 m.

Type: Towing. MMSI: 413600286.

Water temperature 29.3 ° C

Date/timePositionNaut miles runAvg speedWind from/ knotsBaromVisibWave heightAir tempDewpointWater temp
2017-Mar-24 22:00S 11°34' W 136°41'1 0.2 29.3
2017-Mar-24 19:00S 11°34' W 136°41'1 1.2 29.1
2017-Mar-24 18:00S 11°34' W 136°40'1 0.8 29.1
2017-Mar-24 17:00S 11°33' W 136°40'0 0.0 29.0
2017-Mar-24 16:00S 11°33' W 136°40'1 0.6 29.0
2017-Mar-24 15:00S 11°33' W 136°39'0 0.0 28.9
2017-Mar-24 14:00S 11°33' W 136°39'1 1.3 28.9
2017-Mar-24 13:00S 11°32' W 136°38'1 0.3 28.8
2017-Mar-24 11:00S 11°32' W 136°38'3 0.7 29.0
2017-Mar-24 07:00S 11°32' W 136°35'0 0.0 29.1
2017-Mar-24 06:00S 11°32' W 136°35'2 1.2 29.1
2017-Mar-24 04:00S 11°31' W 136°32'2 1.9 29.2
2017-Mar-24 03:00S 11°31' W 136°31'1 0.8 29.2
2017-Mar-24 02:00S 11°30' W 136°30'0 0.0 29.2
2017-Mar-24 00:00S 11°30' W 136°30'2 1.8 29.2
2017-Mar-23 23:00S 11°30' W 136°28'4 0.9 29.2
2017-Mar-23 19:00S 11°29' W 136°25'2 1.9 29.1
2017-Mar-23 18:00S 11°30' W 136°23'2 2.4 29.0
2017-Mar-23 17:00S 11°30' W 136°20'5 2.4 29.0
2017-Mar-23 15:00S 11°31' W 136°16'0 0.0 29.0
2017-Mar-23 14:00S 11°31' W 136°16'4 1.9 29.0
2017-Mar-23 12:00S 11°32' W 136°12'0 0.0 29.0
2017-Mar-23 11:00S 11°32' W 136°12'0 0.0 29.0
2017-Mar-23 08:00S 11°32' W 136°12'0 0.0 29.0
2017-Mar-23 07:00S 11°32' W 136°12'3 2.6 29.0
2017-Mar-23 06:00S 11°34' W 136°10'0 0.0 29.0
2017-Mar-23 05:00S 11°34' W 136°10'0 0.0 29.0
2017-Mar-23 04:00S 11°34' W 136°10'1 1.2 29.0
2017-Mar-23 03:00S 11°35' W 136°10'1 0.8 29.0
2017-Mar-23 02:00S 11°34' W 136°09'2 1.7 29.1
2017-Mar-23 01:00S 11°35' W 136°08'1 1.3 29.1
2017-Mar-23 00:00S 11°37' W 136°07'0 0.0 29.0
2017-Mar-22 23:00S 11°37' W 136°07'5 1.2 29.0
2017-Mar-22 19:00S 11°40' W 136°04'1 0.6 29.0
2017-Mar-22 18:00S 11°40' W 136°04'1 0.6 29.1
2017-Mar-22 17:00S 11°40' W 136°04'0 0.0 29.1
2017-Mar-22 16:00S 11°40' W 136°04'2 1.9 29.1
2017-Mar-22 15:00S 11°41' W 136°02'1 1.3 29.1
2017-Mar-22 14:00S 11°40' W 136°04'1 1.2 29.1
2017-Mar-22 13:00S 11°40' W 136°02'0 0.0 29.1
2017-Mar-22 12:00S 11°40' W 136°02'1 0.3 29.1
2017-Mar-22 10:00S 11°40' W 136°02'3 1.1 29.1
2017-Mar-22 07:00S 11°39' W 135°59'1 1.2 29.1
2017-Mar-22 06:00S 11°39' W 135°58'1 0.6 29.1
2017-Mar-22 05:00S 11°38' W 135°58'1 0.6 29.1
2017-Mar-22 04:00S 11°38' W 135°58'3 3.0 29.1
2017-Mar-22 03:00S 11°38' W 135°55'0 0.0 29.1
2017-Mar-22 01:00S 11°38' W 135°55'2 1.8 29.2
2017-Mar-22 00:00S 11°38' W 135°53'0 0.0 29.2
2017-Mar-21 23:00S 11°38' W 135°53'4 1.1 29.2
2017-Mar-21 19:00S 11°37' W 135°49'1 0.6 29.2
2017-Mar-21 18:00S 11°37' W 135°49'1 0.6 29.2
2017-Mar-21 17:00S 11°36' W 135°49'3 2.9 29.2
2017-Mar-21 16:00S 11°36' W 135°46'0 0.0 29.2
2017-Mar-21 15:00S 11°36' W 135°46'0 0.0 29.2
2017-Mar-21 14:00S 11°36' W 135°46'3 3.0 29.2
2017-Mar-21 13:00S 11°35' W 135°43'0 0.0 29.2
2017-Mar-21 12:00S 11°35' W 135°43'1 0.7 29.2
2017-Mar-21 10:00S 11°35' W 135°41'5 1.8 29.2
2017-Mar-21 07:00S 11°35' W 135°36'1 0.6 29.2
2017-Mar-21 06:00S 11°36' W 135°36'0 0.0 29.2
2017-Mar-21 05:00S 11°36' W 135°36'2 1.9 29.2
2017-Mar-21 04:00S 11°37' W 135°34'0 0.0 29.2
2017-Mar-21 03:00S 11°37' W 135°34'2 1.8 29.3
2017-Mar-21 02:00S 11°37' W 135°32'0 0.0 29.4
2017-Mar-21 01:00S 11°37' W 135°32'2 1.9 29.4
2017-Mar-21 00:00S 11°37' W 135°31'1 0.6 29.4
2017-Mar-20 23:00S 11°37' W 135°30'4 1.0 29.4
2017-Mar-20 19:00S 11°39' W 135°26'1 0.8 29.2
2017-Mar-20 18:00S 11°40' W 135°26'1 1.3 29.2
2017-Mar-20 17:00S 11°40' W 135°25'0 0.0 29.1
2017-Mar-20 16:00S 11°40' W 135°25'1 1.3 29.1
2017-Mar-20 15:00S 11°41' W 135°23'0 0.0 29.1
2017-Mar-20 14:00S 11°41' W 135°23'0 0.0 29.1
2017-Mar-20 13:00S 11°41' W 135°23'0 0.0 29.1
2017-Mar-20 12:00S 11°41' W 135°23'4 0.7 29.1
2017-Mar-20 07:00S 11°41' W 135°20'1 0.6 29.2
2017-Mar-20 06:00S 11°41' W 135°20'1 1.2 29.2
2017-Mar-20 05:00S 11°41' W 135°19'1 1.3 29.2
2017-Mar-20 04:00S 11°42' W 135°19'1 0.8 29.2
2017-Mar-20 03:00S 11°41' W 135°18'0 0.0 29.3
2017-Mar-20 02:00S 11°41' W 135°18'0 0.0 29.3
2017-Mar-20 01:00S 11°41' W 135°18'2 1.8 29.3
2017-Mar-20 00:00S 11°41' W 135°16'3 3.0 29.3
2017-Mar-19 23:00S 11°42' W 135°13'1 0.2 29.3
2017-Mar-19 19:00S 11°41' W 135°13'1 1.2 29.1
2017-Mar-19 18:00S 11°41' W 135°11'1 1.3 29.1
2017-Mar-19 17:00S 11°42' W 135°10'1 0.7 29.1
2017-Mar-19 15:00S 11°41' W 135°09'1 1.2 29.1
2017-Mar-19 14:00S 11°41' W 135°08'0 0.0 29.1
2017-Mar-19 13:00S 11°41' W 135°08'1 1.3 29.1
2017-Mar-19 12:00S 11°40' W 135°07'0 0.0 29.1
2017-Mar-19 11:00S 11°40' W 135°07'0 0.0 29.1
2017-Mar-19 10:00S 11°40' W 135°07'5 1.8 29.1
2017-Mar-19 07:00S 11°40' W 135°02'2 1.7 29.1
2017-Mar-19 06:00S 11°38' W 135°01'0 0.0 29.1
2017-Mar-19 05:00S 11°38' W 135°01'1 1.3 29.1
2017-Mar-19 04:00S 11°39' W 134°59'1 0.6 29.2
2017-Mar-19 03:00S 11°38' W 134°59'4 4.1 29.2
2017-Mar-19 02:00S 11°38' W 134°55'2 1.8 29.2
2017-Mar-19 01:00S 11°38' W 134°53'0 0.0 29.2
2017-Mar-19 00:00S 11°38' W 134°53'4 3.5 29.2
2017-Mar-18 23:00S 11°38' W 134°50'0 0.0 29.2
2017-Mar-18 19:00S 11°38' W 134°50'4 4.2 29.1
2017-Mar-18 18:00S 11°39' W 134°46'0 0.0 29.1
2017-Mar-18 17:00S 11°39' W 134°46'2 1.9 29.1
2017-Mar-18 16:00S 11°40' W 134°44'0 0.0 29.1
2017-Mar-18 15:00S 11°40' W 134°44'3 2.6 29.1
2017-Mar-18 14:00S 11°41' W 134°41'1 0.6 29.1
2017-Mar-18 13:00S 11°41' W 134°41'1 1.3 29.1
2017-Mar-18 12:00S 11°43' W 134°41'1 0.6 29.1
2017-Mar-18 11:00S 11°43' W 134°41'5 4.9 29.1
2017-Mar-18 10:00S 11°44' W 134°37'0 0.0 29.1
2017-Mar-18 08:00S 11°44' W 134°37'0 0.0 29.2
2017-Mar-18 07:00S 11°44' W 134°37'4 3.8 29.2
2017-Mar-18 06:00S 11°46' W 134°34'0 0.0 29.2
2017-Mar-18 05:00S 11°46' W 134°34'0 0.0 29.2
2017-Mar-18 04:00S 11°46' W 134°34'0 0.0 29.2
2017-Mar-18 03:00S 11°46' W 134°34'2 1.8 29.3
2017-Mar-18 02:00S 11°46' W 134°32'0 0.0 29.3
2017-Mar-18 01:00S 11°46' W 134°32'5 5.0 29.4
2017-Mar-18 00:00S 11°48' W 134°27'0 0.0 29.4
2017-Mar-17 23:00S 11°48' W 134°27'0 0.0 29.4
2017-Mar-17 19:00S 11°48' W 134°27'1 0.6 29.2
2017-Mar-17 18:00S 11°48' W 134°28'1 0.8 29.2
2017-Mar-17 17:00S 11°47' W 134°27'1 1.2 29.2
2017-Mar-17 16:00S 11°47' W 134°26'1 1.2 29.2
2017-Mar-17 15:00S 11°47' W 134°25'0 0.0 29.2
2017-Mar-17 14:00S 11°47' W 134°25'0 0.0 29.2
2017-Mar-17 13:00S 11°47' W 134°25'1 1.2 29.2
2017-Mar-17 12:00S 11°47' W 134°23'0 0.0 29.2
2017-Mar-17 11:00S 11°47' W 134°23'0 0.0 29.2
2017-Mar-17 10:00S 11°47' W 134°23'3 1.1 29.2
2017-Mar-17 07:00S 11°46' W 134°20'3 3.0 29.2
2017-Mar-17 06:00S 11°45' W 134°17'1 0.4 29.2
2017-Mar-17 04:00S 11°44' W 134°17'1 0.6 29.2
2017-Mar-17 03:00S 11°44' W 134°16'2 1.7 29.2
2017-Mar-17 02:00S 11°43' W 134°15'2 2.4 29.3
2017-Mar-17 01:00S 11°43' W 134°13'1 0.8 29.3
2017-Mar-17 00:00S 11°42' W 134°12'0 0.0 29.3
2017-Mar-16 23:00S 11°42' W 134°12'0 0.0 29.3
2017-Mar-16 22:00S 11°42' W 134°12'6 2.0 29.3
2017-Mar-16 19:00S 11°41' W 134°06'2 1.7 29.2
2017-Mar-16 18:00S 11°40' W 134°07'3 3.0 29.2
2017-Mar-16 17:00S 11°40' W 134°04'1 0.6 29.2
2017-Mar-16 15:00S 11°39' W 134°04'5 5.4 29.2
2017-Mar-16 14:00S 11°40' W 133°59'0 0.0 29.2
2017-Mar-16 13:00S 11°40' W 133°59'0 0.0 29.2
2017-Mar-16 11:00S 11°40' W 133°59'5 1.4 29.2
2017-Mar-16 07:00S 11°39' W 133°53'2 1.9 29.2
2017-Mar-16 06:00S 11°38' W 133°52'0 0.0 29.3
2017-Mar-16 05:00S 11°38' W 133°52'0 0.0 29.3
2017-Mar-16 04:00S 11°38' W 133°52'1 0.6 29.3
2017-Mar-16 03:00S 11°38' W 133°51'2 1.9 29.3
2017-Mar-16 02:00S 11°39' W 133°49'2 1.9 29.4
2017-Mar-16 01:00S 11°40' W 133°47'0 0.0 29.4
2017-Mar-16 00:00S 11°40' W 133°47'2 0.9 29.4
2017-Mar-15 22:00S 11°40' W 133°46'3 1.0 29.3
2017-Mar-15 19:00S 11°40' W 133°43'0 0.0 29.2
2017-Mar-15 18:00S 11°40' W 133°43'2 1.9 29.1
2017-Mar-15 17:00S 11°41' W 133°41'0 0.0 29.1
2017-Mar-15 16:00S 11°41' W 133°41'1 1.3 29.1
2017-Mar-15 15:00S 11°41' W 133°40'1 0.6 29.1
2017-Mar-15 14:00S 11°41' W 133°40'1 0.6 29.1
2017-Mar-15 13:00S 11°42' W 133°40'2 1.1 29.1
2017-Mar-15 11:00S 11°41' W 133°38'0 0.0 29.1
2017-Mar-15 07:00S 11°41' W 133°38'1 1.3 29.2
2017-Mar-15 06:00S 11°40' W 133°38'1 0.3 29.2
2017-Mar-15 04:00S 11°40' W 133°37'0 0.0 29.2
2017-Mar-15 03:00S 11°40' W 133°37'1 1.3 29.3
2017-Mar-15 02:00S 11°39' W 133°36'0 0.0 29.4
2017-Mar-15 01:00S 11°39' W 133°36'0 0.0 29.4
2017-Mar-15 00:00S 11°39' W 133°36'0 0.0 29.4
2017-Mar-14 23:00S 11°39' W 133°36'   29.4

Dump ship's entire track history